createdAt,value
2018-07-23T10:22:31.649Z,98070.28
2018-07-23T10:23:35.225Z,98073.42
2018-07-23T10:24:38.328Z,98078.67
2018-07-23T10:25:41.174Z,98071.89
2018-07-23T10:26:44.392Z,98074.93
2018-07-23T10:27:49.797Z,98071.02
2018-07-23T10:28:56.804Z,98076.83
2018-07-23T10:30:00.498Z,98064.92
2018-07-23T10:31:04.494Z,98078.66
2018-07-23T10:32:08.077Z,98075.38
2018-07-23T10:33:11.055Z,98068.00
2018-07-23T10:34:15.055Z,98068.97
2018-07-23T10:35:19.628Z,98069.95
2018-07-23T10:36:22.637Z,98060.23
2018-07-23T10:37:26.682Z,98065.95
2018-07-23T10:38:31.950Z,98062.25
2018-07-23T10:39:35.390Z,98072.87
2018-07-23T10:40:38.689Z,98068.62
2018-07-23T10:41:41.929Z,98071.55
2018-07-23T10:42:44.841Z,98068.59
2018-07-23T10:43:47.706Z,98049.42
2018-07-23T10:44:55.526Z,98062.44
2018-07-23T10:46:02.525Z,98063.79
2018-07-23T10:47:05.796Z,98058.27
2018-07-23T10:48:11.399Z,98068.62
2018-07-23T10:49:24.694Z,98067.58
2018-07-23T10:50:28.261Z,98071.80
2018-07-23T10:51:31.409Z,98065.19
2018-07-23T10:52:37.405Z,98066.31
2018-07-23T10:53:44.397Z,98066.38
2018-07-23T10:54:49.426Z,98076.23
2018-07-23T10:55:54.720Z,98066.54
2018-07-23T10:56:59.628Z,98061.93
2018-07-23T10:58:05.610Z,98066.97
2018-07-23T10:59:13.754Z,98074.55
2018-07-23T11:00:18.839Z,98073.80
2018-07-23T11:01:24.883Z,98071.66
2018-07-23T11:02:30.548Z,98078.02
2018-07-23T11:03:36.524Z,98073.13
2018-07-23T11:04:42.360Z,98069.33
2018-07-23T11:05:52.000Z,98072.23
2018-07-23T11:07:03.149Z,98068.72
2018-07-23T11:08:10.809Z,98072.17
2018-07-23T11:09:17.466Z,98069.14
2018-07-23T11:10:23.865Z,98068.16
2018-07-23T11:11:31.406Z,98064.44
2018-07-23T11:12:37.768Z,98062.69
2018-07-23T11:13:42.580Z,98066.89
2018-07-23T11:14:47.330Z,98070.54
2018-07-23T11:15:50.913Z,98065.55
2018-07-23T11:16:54.187Z,98066.97
2018-07-23T11:17:58.070Z,98049.03
2018-07-23T11:19:02.719Z,98062.23
2018-07-23T11:20:05.558Z,98066.51
2018-07-23T11:21:09.338Z,98063.69
2018-07-23T11:22:12.218Z,98067.47
2018-07-23T11:23:16.611Z,98065.48
2018-07-23T11:24:20.453Z,98061.44
2018-07-23T11:25:40.902Z,98066.88
2018-07-23T11:26:34.237Z,98069.92
2018-07-23T11:27:39.495Z,98068.97
2018-07-23T11:28:44.102Z,98068.41
2018-07-23T11:29:47.164Z,98069.64
2018-07-23T11:30:51.394Z,98070.63
2018-07-23T11:31:58.855Z,98067.56
2018-07-23T11:33:03.171Z,98068.35
2018-07-23T11:34:07.673Z,98064.88
2018-07-23T11:35:15.830Z,98069.88
2018-07-23T11:36:18.856Z,98074.09
2018-07-23T11:37:22.474Z,98075.38
2018-07-23T11:38:25.782Z,98071.10
2018-07-23T11:39:28.997Z,98073.70
2018-07-23T11:40:36.810Z,98067.11
2018-07-23T11:41:40.595Z,98076.47
2018-07-23T11:42:44.735Z,98074.83
2018-07-23T11:43:47.670Z,98061.61
2018-07-23T11:44:51.968Z,98073.41
2018-07-23T11:45:54.845Z,98071.11
2018-07-23T11:47:04.042Z,98061.62
2018-07-23T11:48:09.673Z,98066.94
2018-07-23T11:49:15.128Z,98072.94
2018-07-23T11:50:19.596Z,98072.92
2018-07-23T11:51:24.680Z,98066.77
2018-07-23T11:52:29.237Z,98061.74
2018-07-23T11:53:32.141Z,98063.23
2018-07-23T11:54:37.058Z,98066.44
2018-07-23T11:55:40.553Z,98051.59
2018-07-23T11:56:44.454Z,98068.25
2018-07-23T11:57:48.058Z,98071.41
2018-07-23T11:58:52.791Z,98070.03
2018-07-23T11:59:57.044Z,98070.34
2018-07-23T12:01:02.340Z,98064.33
2018-07-23T12:02:05.834Z,98078.71
2018-07-23T12:03:12.133Z,98074.71
2018-07-23T12:04:16.230Z,98068.09
2018-07-23T12:05:20.489Z,98074.13
2018-07-23T12:06:23.467Z,98066.48
2018-07-23T12:07:26.378Z,98073.73
2018-07-23T12:08:31.588Z,98067.20
2018-07-23T12:09:35.381Z,98072.02
2018-07-23T12:10:38.330Z,98064.79
2018-07-23T12:11:41.636Z,98064.56
2018-07-23T12:12:44.478Z,98066.98
2018-07-23T12:13:47.344Z,98061.80
2018-07-23T12:14:56.717Z,98066.56
2018-07-23T12:15:59.833Z,98059.94
2018-07-23T12:17:05.207Z,98065.55
2018-07-23T12:18:08.306Z,98055.98
2018-07-23T12:19:12.700Z,98058.63
2018-07-23T12:20:17.933Z,98052.51
2018-07-23T12:21:21.397Z,98071.14
2018-07-23T12:22:26.509Z,98072.02
2018-07-23T12:23:29.421Z,98068.96
2018-07-23T12:24:35.697Z,98068.97
2018-07-23T12:25:40.100Z,98062.84
2018-07-23T12:26:45.118Z,98065.18
2018-07-23T12:27:48.410Z,98067.49
2018-07-23T12:28:51.388Z,98065.63
2018-07-23T12:29:54.306Z,98056.11
2018-07-23T12:30:57.201Z,98062.08
2018-07-23T12:32:00.064Z,98053.52
2018-07-23T12:33:04.626Z,98051.67
2018-07-23T12:34:10.457Z,98050.52
2018-07-23T12:35:15.377Z,98052.44
2018-07-23T12:36:18.952Z,98046.84
2018-07-23T12:37:22.255Z,98049.55
2018-07-23T12:38:25.110Z,98047.67
2018-07-23T12:39:28.042Z,98053.44
2018-07-23T12:40:36.493Z,98048.98
2018-07-23T12:41:39.797Z,98051.94
2018-07-23T12:42:42.757Z,98038.41
2018-07-23T12:43:46.264Z,98039.05
2018-07-23T12:44:49.433Z,98044.25
2018-07-23T12:45:52.336Z,98045.51
2018-07-23T12:46:55.476Z,98049.91
2018-07-23T12:48:59.889Z,98043.33
2018-07-23T12:50:03.110Z,98037.45
2018-07-23T12:51:06.295Z,98046.39
2018-07-23T12:52:11.029Z,98043.47
2018-07-23T12:53:17.996Z,98042.37
2018-07-23T12:54:21.406Z,98042.48
2018-07-23T12:55:26.668Z,98044.55
2018-07-23T12:56:30.504Z,98050.79
2018-07-23T12:57:33.632Z,98046.38
2018-07-23T12:58:36.756Z,98051.77
2018-07-23T12:59:40.447Z,98050.31
2018-07-23T13:00:43.798Z,98051.27
2018-07-23T13:01:47.462Z,98047.88
2018-07-23T13:02:50.466Z,98046.77
2018-07-23T13:03:53.587Z,98047.77
2018-07-23T13:04:56.532Z,98045.55
2018-07-23T13:05:59.740Z,98041.61
2018-07-23T13:07:02.821Z,98042.98
2018-07-23T13:08:06.325Z,98046.05
2018-07-23T13:09:09.916Z,98041.14
2018-07-23T13:11:27.134Z,98040.31
2018-07-23T13:12:30.667Z,98019.95
2018-07-23T13:13:34.356Z,98032.78
2018-07-23T13:14:38.236Z,98041.84
2018-07-23T13:15:41.113Z,98034.50
2018-07-23T13:16:44.399Z,98028.92
2018-07-23T13:17:47.252Z,98038.78
2018-07-23T13:18:51.549Z,98038.25
2018-07-23T13:19:54.465Z,98043.17
2018-07-23T13:20:57.395Z,98039.23
2018-07-23T13:22:01.096Z,98039.84
2018-07-23T13:23:04.479Z,98041.35
2018-07-23T13:25:20.563Z,98030.17
2018-07-23T13:26:23.524Z,98032.95
2018-07-23T13:27:33.139Z,98033.52
2018-07-23T13:28:36.463Z,98030.98
2018-07-23T13:29:39.562Z,98033.81
2018-07-23T13:30:46.611Z,98035.42
2018-07-23T13:31:49.700Z,98032.26
2018-07-23T13:32:52.615Z,98036.55
2018-07-23T13:33:55.530Z,98029.14
2018-07-23T13:34:58.492Z,98036.33
2018-07-23T13:36:02.691Z,98030.23
2018-07-23T13:37:06.893Z,98037.09
2018-07-23T13:38:10.453Z,98028.29
2018-07-23T13:39:14.734Z,98019.03
2018-07-23T13:40:25.355Z,98030.09
2018-07-23T13:41:28.250Z,98029.96
2018-07-23T13:42:31.976Z,98027.61
2018-07-23T13:43:36.767Z,98029.33
2018-07-23T13:44:43.467Z,98026.17
2018-07-23T13:45:46.516Z,98032.22
2018-07-23T13:46:50.155Z,98031.70
2018-07-23T13:47:53.745Z,98024.97
2018-07-23T13:48:56.639Z,98025.48
2018-07-23T13:50:00.117Z,98026.84
2018-07-23T13:51:03.082Z,98018.44
2018-07-23T13:52:06.978Z,98028.56
2018-07-23T13:53:09.815Z,98026.16
2018-07-23T13:54:13.849Z,98024.73
2018-07-23T13:55:17.502Z,98028.69
2018-07-23T13:56:20.985Z,98028.24
2018-07-23T13:57:23.913Z,98030.32
2018-07-23T13:58:30.167Z,98034.96
2018-07-23T13:59:35.525Z,98025.45
2018-07-23T14:00:39.369Z,98025.34
2018-07-23T14:01:44.372Z,98030.48
2018-07-23T14:02:48.860Z,98025.02
2018-07-23T14:03:53.127Z,98023.70
2018-07-23T14:04:58.081Z,98016.97
2018-07-23T14:06:02.069Z,98021.18
2018-07-23T14:07:07.487Z,98014.99
2018-07-23T14:08:12.279Z,98013.13
2018-07-23T14:09:16.593Z,98018.61
2018-07-23T14:10:19.590Z,98019.56
2018-07-23T14:11:22.615Z,98015.34
2018-07-23T14:12:25.474Z,98017.38
2018-07-23T14:13:28.358Z,98006.44
2018-07-23T14:14:31.992Z,98025.73
2018-07-23T14:16:55.354Z,98020.20
2018-07-23T14:19:12.679Z,98021.70
2018-07-23T14:20:23.315Z,98017.70
2018-07-23T14:22:43.359Z,98020.66
2018-07-23T14:23:48.079Z,98024.39
2018-07-23T14:24:50.926Z,98014.09
2018-07-23T14:25:55.110Z,98020.52
2018-07-23T14:27:02.766Z,98015.22
2018-07-23T14:28:10.421Z,98022.00
2018-07-23T14:29:14.401Z,98013.95
2018-07-23T14:30:17.485Z,98010.25
2018-07-23T14:31:20.510Z,98013.83
2018-07-23T15:01:19.405Z,98001.09
2018-07-23T15:02:22.343Z,97996.92
2018-07-23T15:03:25.660Z,97998.09
2018-07-23T15:04:28.614Z,98006.11
2018-07-23T15:05:32.148Z,98008.57
2018-07-23T15:06:38.094Z,98006.20
2018-07-23T15:07:45.337Z,98000.92
2018-07-23T15:08:49.353Z,98001.16
2018-07-23T15:09:53.504Z,98003.50
2018-07-23T15:10:56.653Z,98000.09
2018-07-23T15:11:59.650Z,98004.23
2018-07-23T15:13:05.256Z,98008.75
2018-07-23T15:14:08.259Z,97990.17
2018-07-23T15:15:11.253Z,97987.91
2018-07-23T15:16:14.251Z,97988.68
2018-07-23T15:17:17.144Z,97992.22
2018-07-23T15:18:20.193Z,97988.25
2018-07-23T15:19:24.413Z,97988.20
2018-07-23T15:20:27.375Z,97981.02
2018-07-23T15:21:31.285Z,97989.05
2018-07-23T15:22:35.187Z,97985.58
2018-07-23T15:23:38.249Z,97980.28
2018-07-23T15:24:44.497Z,97981.36
2018-07-23T15:25:49.856Z,97991.09
2018-07-23T15:26:52.765Z,97980.23
2018-07-23T15:27:55.975Z,97987.59
2018-07-23T15:28:58.961Z,97991.81
2018-07-23T15:30:05.472Z,97993.60
2018-07-23T15:31:09.727Z,97992.11
2018-07-23T15:32:13.038Z,97988.25
2018-07-23T15:33:16.468Z,97990.23
2018-07-23T15:34:20.800Z,97985.13
2018-07-23T15:35:24.356Z,97996.32
2018-07-23T15:36:27.706Z,98000.28
2018-07-23T15:37:31.444Z,97987.71
2018-07-23T15:38:34.737Z,97993.11
2018-07-23T15:39:37.747Z,97991.58
2018-07-23T15:40:45.959Z,97991.44
2018-07-23T15:41:51.870Z,97991.41
2018-07-23T15:44:15.690Z,97993.84
2018-07-23T15:45:18.867Z,97987.53
2018-07-23T15:46:22.128Z,97990.61
2018-07-23T15:47:32.670Z,97981.09
2018-07-23T15:48:40.969Z,97982.86
2018-07-23T15:49:44.026Z,97982.88
2018-07-23T15:50:51.883Z,97977.55
2018-07-23T15:51:56.603Z,97978.66
2018-07-23T15:53:07.379Z,97976.13
2018-07-23T15:54:11.955Z,97982.30
2018-07-23T15:55:15.468Z,97975.98
2018-07-23T15:56:21.181Z,97980.05
2018-07-23T15:57:25.214Z,97980.45
2018-07-23T15:58:31.643Z,97985.84
2018-07-23T15:59:35.711Z,97980.94
2018-07-23T16:00:48.315Z,97980.88
2018-07-23T16:01:59.136Z,97983.09
2018-07-23T16:03:03.599Z,97980.75
2018-07-23T16:04:06.966Z,97978.88
2018-07-23T16:05:11.442Z,97974.16
2018-07-23T16:06:16.292Z,97967.73
2018-07-23T16:07:27.233Z,97971.20
2018-07-23T16:08:30.486Z,97973.92
2018-07-23T16:09:35.049Z,97979.74
2018-07-23T16:10:39.093Z,97985.42
2018-07-23T16:11:43.818Z,97975.87
2018-07-23T16:12:50.624Z,97974.59
2018-07-23T16:13:53.812Z,97972.39
2018-07-23T16:14:57.111Z,97980.59
2018-07-23T16:16:05.277Z,97979.86
2018-07-23T16:17:09.324Z,97971.84
2018-07-23T16:18:12.199Z,97975.92
2018-07-23T16:19:15.499Z,97969.22
2018-07-23T16:20:19.824Z,97967.17
2018-07-23T16:21:24.005Z,97975.52
2018-07-23T16:22:28.563Z,97979.88
2018-07-23T16:23:37.805Z,97972.48
2018-07-23T16:28:52.683Z,97974.06
2018-07-23T16:30:06.885Z,97969.25
2018-07-23T16:31:11.611Z,97972.83
2018-07-23T16:32:17.148Z,97979.87
2018-07-23T16:33:26.816Z,97975.09
2018-07-23T16:35:56.212Z,97973.48
2018-07-23T16:37:07.597Z,97979.36
2018-07-23T16:38:13.891Z,97976.78
2018-07-23T16:39:20.374Z,97977.12
2018-07-23T16:40:40.708Z,97970.25
2018-07-23T16:42:02.597Z,97978.13
2018-07-23T16:43:11.705Z,97968.30
2018-07-23T16:44:23.112Z,97974.11
2018-07-23T16:45:26.955Z,97980.73
2018-07-23T16:46:31.041Z,97976.30
2018-07-23T16:47:40.667Z,97976.03
2018-07-23T16:49:03.876Z,97974.86
2018-07-23T16:51:59.280Z,97975.00
2018-07-23T16:53:14.958Z,97978.55
2018-07-23T16:54:25.448Z,97976.29
2018-07-23T16:55:30.493Z,97973.87
2018-07-23T16:56:41.690Z,97974.19
2018-07-23T16:57:46.309Z,97976.00
2018-07-23T16:58:50.244Z,97976.25
2018-07-23T16:59:57.920Z,97974.02
2018-07-23T17:01:05.572Z,97971.03
2018-07-23T17:02:09.973Z,97974.92
2018-07-23T17:03:14.634Z,97969.03
2018-07-23T17:04:18.956Z,97972.05
2018-07-23T17:05:40.126Z,97977.59
2018-07-23T17:06:46.581Z,97971.59
2018-07-23T17:07:50.827Z,97975.12
2018-07-23T17:08:57.550Z,97976.22
2018-07-23T17:10:04.722Z,97966.88
2018-07-23T17:11:09.525Z,97973.61
2018-07-23T17:12:15.971Z,97971.42
2018-07-23T17:13:25.097Z,97972.99
2018-07-23T17:14:30.804Z,97975.48
2018-07-23T17:15:36.813Z,97967.63
2018-07-23T17:16:40.205Z,97976.35
2018-07-23T17:17:45.582Z,97972.77
2018-07-23T17:18:55.074Z,97966.91
2018-07-23T17:20:04.674Z,97971.50
2018-07-23T17:21:09.777Z,97969.92
2018-07-23T17:22:13.673Z,97973.14
2018-07-23T17:23:19.651Z,97972.24
2018-07-23T17:25:38.986Z,97974.88
2018-07-23T17:26:43.136Z,97978.88
2018-07-23T17:27:47.302Z,97975.69
2018-07-23T17:28:52.757Z,97978.11
2018-07-23T17:29:58.136Z,97972.08
2018-07-23T17:31:07.485Z,97973.99
2018-07-23T17:32:24.597Z,97972.31
2018-07-23T17:33:40.698Z,97975.72
2018-07-23T17:34:54.626Z,97976.34
2018-07-23T17:37:27.834Z,97977.69
2018-07-23T17:38:37.268Z,97980.48
2018-07-23T17:41:09.593Z,97980.20
2018-07-23T17:48:31.459Z,97980.39
2018-07-23T17:49:39.045Z,97980.22
2018-07-23T17:50:55.678Z,97981.97
2018-07-23T17:52:01.364Z,97976.31
2018-07-23T17:53:14.836Z,97981.66
2018-07-23T17:56:22.411Z,97980.04
2018-07-23T18:03:20.826Z,97984.38
2018-07-23T18:04:33.643Z,97983.98
2018-07-23T18:05:48.179Z,97979.06
2018-07-23T18:08:06.967Z,97983.13
2018-07-23T18:09:14.475Z,97983.00
2018-07-23T18:10:33.496Z,97981.77
2018-07-23T18:11:40.754Z,97978.39
2018-07-23T18:17:53.046Z,97983.91
2018-07-23T18:18:59.888Z,97978.80
2018-07-23T18:20:06.826Z,97987.45
2018-07-23T18:21:15.056Z,97982.45
2018-07-23T18:22:25.130Z,97982.36
2018-07-23T18:23:28.659Z,97981.86
2018-07-23T18:25:54.201Z,97987.63
2018-07-23T18:28:12.606Z,97989.02
2018-07-23T18:29:22.262Z,97990.69
2018-07-23T18:31:40.184Z,97988.70
2018-07-23T18:32:43.152Z,97988.09
2018-07-23T18:33:49.844Z,97990.97
2018-07-23T18:34:56.659Z,97994.13
2018-07-23T18:36:00.752Z,97994.83
2018-07-23T18:37:09.288Z,97992.36
2018-07-23T18:38:16.456Z,97986.95
2018-07-23T18:39:28.171Z,97986.95
2018-07-23T18:40:33.994Z,97985.81
2018-07-23T18:41:39.922Z,97987.39
2018-07-23T18:42:44.866Z,97987.23
2018-07-23T18:43:50.841Z,97988.86
2018-07-23T18:44:56.888Z,97991.03
2018-07-23T18:46:02.806Z,97992.06
2018-07-23T18:47:10.471Z,97987.46
2018-07-23T18:48:18.574Z,97985.78
2018-07-23T18:49:25.838Z,97988.58
2018-07-23T18:50:31.350Z,97986.22
2018-07-23T18:51:41.786Z,97990.32
2018-07-23T18:52:47.650Z,97985.77
2018-07-23T18:53:53.467Z,97997.83
2018-07-23T18:54:58.004Z,97990.59
2018-07-23T18:56:01.222Z,97996.52
2018-07-23T18:57:06.356Z,97994.41
2018-07-23T18:58:10.181Z,97998.42
2018-07-23T18:59:13.038Z,98003.06
2018-07-23T19:00:15.874Z,98001.15
2018-07-23T19:01:18.811Z,98000.42
2018-07-23T19:02:22.055Z,98002.26
2018-07-23T19:03:25.328Z,98003.29
2018-07-23T19:04:28.420Z,98000.94
2018-07-23T19:05:34.691Z,98002.33
2018-07-23T19:06:37.839Z,97999.53
2018-07-23T19:07:43.900Z,97999.87
2018-07-23T19:08:49.044Z,97998.44
2018-07-23T19:09:52.604Z,97997.44
2018-07-23T19:10:55.713Z,97999.67
2018-07-23T19:12:01.065Z,97993.83
2018-07-23T19:13:07.857Z,97994.41
2018-07-23T19:14:11.260Z,98000.44
2018-07-23T19:15:16.329Z,98003.28
2018-07-23T19:16:20.408Z,98000.65
2018-07-23T19:17:23.265Z,98000.58
2018-07-23T19:18:29.322Z,98009.83
2018-07-23T19:19:35.860Z,97999.34
2018-07-23T19:20:41.032Z,98006.15
2018-07-23T19:22:58.624Z,98002.96
2018-07-23T19:24:01.849Z,98007.99
2018-07-23T19:25:04.828Z,98004.05
2018-07-23T19:26:08.155Z,98004.67
2018-07-23T19:27:11.508Z,98010.08
2018-07-23T19:28:14.809Z,98006.91
2018-07-23T19:29:22.675Z,98010.14
2018-07-23T19:30:25.790Z,98017.12
2018-07-23T19:31:29.508Z,98015.01
2018-07-23T19:32:32.343Z,98014.64
2018-07-23T19:33:35.773Z,98016.41
2018-07-23T20:06:07.238Z,98029.52
2018-07-23T20:07:10.493Z,98033.70
2018-07-23T20:08:13.820Z,98027.94
2018-07-23T20:09:18.076Z,98032.18
2018-07-23T20:10:22.980Z,98028.42
2018-07-23T20:11:28.224Z,98028.86
2018-07-23T20:12:34.662Z,98036.17
2018-07-23T20:14:49.955Z,98032.67
2018-07-23T20:15:58.187Z,98029.98
2018-07-23T20:19:37.333Z,98029.38
2018-07-23T20:20:42.459Z,98025.28
2018-07-23T20:21:45.845Z,98032.66
2018-07-23T20:22:57.293Z,98031.16
2018-07-23T20:29:32.225Z,98028.29
2018-07-23T20:30:35.162Z,98035.44
2018-07-23T20:31:38.217Z,98029.64
2018-07-23T20:32:42.037Z,98032.74
2018-07-23T20:33:47.243Z,98028.56
2018-07-23T20:35:04.032Z,98030.34
2018-07-23T20:36:08.213Z,98034.28
2018-07-23T20:37:19.340Z,98033.56
2018-07-23T20:38:23.316Z,98035.61
2018-07-23T20:39:27.352Z,98032.13
2018-07-23T20:40:30.524Z,98032.02
2018-07-23T20:41:33.694Z,98036.81
2018-07-23T20:42:38.349Z,98035.27
2018-07-23T20:43:42.598Z,98037.82
2018-07-23T20:44:45.572Z,98031.02
2018-07-23T20:45:49.147Z,98037.13
2018-07-23T20:46:52.271Z,98033.72
2018-07-23T20:47:55.647Z,98038.28
2018-07-23T20:48:59.336Z,98039.59
2018-07-23T20:50:02.568Z,98036.77
2018-07-23T20:51:05.591Z,98035.33
2018-07-23T20:52:09.487Z,98034.14
2018-07-23T20:53:12.914Z,98031.81
2018-07-23T20:54:19.692Z,98040.13
2018-07-23T20:55:23.340Z,98044.45
2018-07-23T20:56:26.639Z,98036.11
2018-07-23T20:57:30.688Z,98044.08
2018-07-23T20:58:35.402Z,98041.93
2018-07-23T20:59:38.552Z,98036.70
2018-07-23T21:00:41.696Z,98043.81
2018-07-23T21:01:44.571Z,98042.23
2018-07-23T21:02:48.492Z,98040.48
2018-07-23T21:03:52.792Z,98040.79
2018-07-23T21:04:55.848Z,98035.93
2018-07-23T21:05:59.868Z,98038.43
2018-07-23T21:07:03.331Z,98037.54
2018-07-23T21:08:06.511Z,98037.62
2018-07-23T21:09:10.570Z,98036.47
2018-07-23T21:10:14.302Z,98036.33
2018-07-23T21:11:18.611Z,98038.94
2018-07-23T21:12:24.535Z,98031.65
2018-07-23T21:13:27.640Z,98033.69
2018-07-23T21:14:31.138Z,98032.56
2018-07-23T21:15:36.309Z,98035.18
2018-07-23T21:16:43.534Z,98040.41
2018-07-23T21:17:46.507Z,98041.56
2018-07-23T21:18:50.130Z,98042.53
2018-07-23T21:19:54.546Z,98041.97
2018-07-23T21:20:59.192Z,98045.75
2018-07-23T21:22:02.371Z,98040.05
2018-07-23T21:23:07.807Z,98045.66
2018-07-23T21:24:16.579Z,98048.01
2018-07-23T21:25:22.567Z,98048.32
2018-07-23T21:26:25.385Z,98041.52
2018-07-23T21:27:28.857Z,98042.34
2018-07-23T21:28:33.777Z,98039.36
2018-07-23T21:29:37.610Z,98042.73
2018-07-23T21:30:41.573Z,98052.67
2018-07-23T21:31:45.001Z,98046.95
2018-07-23T21:32:49.162Z,98046.42
2018-07-23T21:33:52.466Z,98045.88
2018-07-23T21:34:59.577Z,98047.92
2018-07-23T21:36:08.368Z,98044.36
2018-07-23T21:37:16.553Z,98047.14
2018-07-23T21:38:21.636Z,98051.33
2018-07-23T21:43:12.235Z,98054.17
2018-07-23T21:44:22.742Z,98057.50
2018-07-23T21:51:03.572Z,98060.81
2018-07-23T21:52:08.273Z,98055.65
2018-07-23T21:54:30.235Z,98062.82
2018-07-23T21:56:49.015Z,98060.24
2018-07-23T21:57:52.552Z,98061.20
2018-07-23T21:58:57.141Z,98053.86
2018-07-23T22:00:01.247Z,98059.72
2018-07-23T22:01:06.436Z,98059.30
2018-07-23T22:07:11.131Z,98060.45
2018-07-23T23:21:42.838Z,98056.30
2018-07-23T23:22:45.834Z,98057.07
2018-07-23T23:31:14.696Z,98048.19
2018-07-23T23:32:20.351Z,98043.51
2018-07-23T23:33:25.313Z,98048.86
2018-07-23T23:34:31.690Z,98050.00
2018-07-23T23:35:35.585Z,98047.48
2018-07-23T23:36:39.825Z,98039.56
2018-07-23T23:37:51.789Z,98049.89
2018-07-23T23:38:54.799Z,98040.98
2018-07-23T23:39:58.160Z,98042.56
2018-07-23T23:41:02.432Z,98046.27
2018-07-23T23:42:05.987Z,98044.45
2018-07-23T23:43:10.190Z,98043.05
2018-07-23T23:45:28.832Z,98045.31
2018-07-23T23:46:32.567Z,98048.22
2018-07-23T23:47:35.711Z,98043.44
2018-07-23T23:48:42.107Z,98043.84
2018-07-23T23:49:45.014Z,98045.62
2018-07-23T23:50:57.692Z,98047.38
2018-07-23T23:52:03.065Z,98047.17
2018-07-23T23:53:10.394Z,98043.20
2018-07-23T23:54:16.919Z,98050.90
2018-07-23T23:55:21.148Z,98049.95
2018-07-23T23:56:24.653Z,98044.67
2018-07-23T23:57:27.999Z,98048.42
2018-07-23T23:58:31.175Z,98052.56
2018-07-23T23:59:35.090Z,98043.52
